createdAt,value
2023-03-06T00:02:42.040Z,60.02
2023-03-06T00:06:07.557Z,60.51
2023-03-06T00:09:11.798Z,59.93
2023-03-06T00:12:15.235Z,60.00
2023-03-06T00:15:28.495Z,60.05
2023-03-06T00:18:36.051Z,59.44
2023-03-06T00:21:48.239Z,59.31
2023-03-06T00:25:05.216Z,59.01
2023-03-06T00:28:14.941Z,59.36
2023-03-06T00:31:31.865Z,58.54
2023-03-06T00:34:53.122Z,58.63
2023-03-06T00:38:04.290Z,58.57
2023-03-06T00:41:14.214Z,58.94
2023-03-06T00:44:18.252Z,57.99
2023-03-06T00:47:26.645Z,58.82
2023-03-06T00:50:30.473Z,58.99
2023-03-06T00:53:44.191Z,58.98
2023-03-06T00:56:49.158Z,59.54
2023-03-06T00:59:53.778Z,59.95
2023-03-06T01:02:56.543Z,59.75
2023-03-06T01:06:05.092Z,59.52
2023-03-06T01:09:14.670Z,59.77
2023-03-06T01:12:23.485Z,59.75
2023-03-06T01:15:54.095Z,60.08
2023-03-06T01:18:57.010Z,58.80
2023-03-06T01:22:06.525Z,58.76
2023-03-06T01:25:11.398Z,59.17
2023-03-06T01:28:21.209Z,59.23
2023-03-06T01:31:24.879Z,59.33
2023-03-06T01:34:47.534Z,59.37
2023-03-06T01:37:59.004Z,58.05
2023-03-06T01:41:05.879Z,57.95
2023-03-06T01:44:15.234Z,57.97
2023-03-06T01:47:25.707Z,57.10
2023-03-06T01:50:28.608Z,57.59
2023-03-06T01:53:34.902Z,57.41
2023-03-06T01:56:41.053Z,57.81
2023-03-06T01:59:55.546Z,57.56
2023-03-06T02:03:14.118Z,58.31
2023-03-06T02:06:22.045Z,57.87
2023-03-06T02:09:30.986Z,58.45
2023-03-06T02:12:42.305Z,58.84
2023-03-06T02:15:50.442Z,59.50
2023-03-06T02:19:21.756Z,59.29
2023-03-06T02:22:30.039Z,59.17
2023-03-06T02:25:40.121Z,58.66
2023-03-06T02:28:43.280Z,59.11
2023-03-06T02:31:49.239Z,58.95
2023-03-06T02:35:03.153Z,58.20
2023-03-06T02:38:16.088Z,58.29
2023-03-06T02:41:18.732Z,58.22
2023-03-06T02:44:27.665Z,58.23
2023-03-06T02:47:47.542Z,58.68
2023-03-06T02:50:50.897Z,58.43
2023-03-06T02:53:58.487Z,58.17
2023-03-06T02:57:03.361Z,57.40
2023-03-06T03:00:10.265Z,57.68
2023-03-06T03:03:21.337Z,57.22
2023-03-06T03:06:35.014Z,57.74
2023-03-06T03:09:37.409Z,57.89
2023-03-06T03:12:40.974Z,58.22
2023-03-06T03:16:20.076Z,57.92
2023-03-06T03:19:23.608Z,57.74
2023-03-06T03:22:33.499Z,58.75
2023-03-06T03:25:38.355Z,57.85
2023-03-06T03:28:47.322Z,56.93
2023-03-06T03:31:56.754Z,57.86
2023-03-06T03:35:01.409Z,58.03
2023-03-06T03:38:15.711Z,57.42
2023-03-06T03:41:20.612Z,58.12
2023-03-06T03:44:27.279Z,57.77
2023-03-06T03:47:32.261Z,58.33
2023-03-06T03:50:42.224Z,58.60
2023-03-06T03:53:48.612Z,58.95
2023-03-06T03:56:55.523Z,58.51
2023-03-06T04:00:07.056Z,58.55
2023-03-06T04:03:37.295Z,58.09
2023-03-06T04:06:45.508Z,58.16
2023-03-06T04:09:57.924Z,58.25
2023-03-06T04:13:02.812Z,58.06
2023-03-06T04:16:05.543Z,58.35
2023-03-06T04:19:09.820Z,58.31
2023-03-06T04:22:18.269Z,59.09
2023-03-06T04:25:21.725Z,59.53
2023-03-06T04:28:29.749Z,59.61
2023-03-06T04:31:35.002Z,59.71
2023-03-06T04:34:41.065Z,59.59
2023-03-06T04:37:45.750Z,58.82
2023-03-06T04:40:59.385Z,60.26
2023-03-06T04:44:09.400Z,60.86
2023-03-06T04:47:12.341Z,61.25
2023-03-06T04:50:21.053Z,60.96
2023-03-06T04:53:27.387Z,61.70
2023-03-06T04:56:31.008Z,61.72
2023-03-06T04:59:43.148Z,62.13
2023-03-06T05:02:51.150Z,61.93
2023-03-06T05:06:00.306Z,62.45
2023-03-06T05:09:04.366Z,62.79
2023-03-06T05:12:24.059Z,62.53
2023-03-06T05:15:26.330Z,62.41
2023-03-06T05:18:37.413Z,63.14
2023-03-06T05:21:44.976Z,63.45
2023-03-06T05:24:50.079Z,63.33
2023-03-06T05:27:54.922Z,62.91
2023-03-06T05:30:57.190Z,63.58
2023-03-06T05:34:05.643Z,63.99
2023-03-06T05:37:17.733Z,65.28
2023-03-06T05:40:32.446Z,64.51
2023-03-06T05:43:37.668Z,64.36
2023-03-06T05:46:47.015Z,64.47
2023-03-06T05:49:52.598Z,65.68
2023-03-06T05:52:54.918Z,66.58
2023-03-06T05:56:15.771Z,66.63
2023-03-06T05:59:25.007Z,67.33
2023-03-06T06:02:32.320Z,67.90
2023-03-06T06:05:44.899Z,67.85
2023-03-06T06:08:59.863Z,67.87
2023-03-06T06:12:05.191Z,68.08
2023-03-06T06:15:09.787Z,69.08
2023-03-06T06:18:13.129Z,69.45
2023-03-06T06:21:18.985Z,69.01
2023-03-06T06:24:35.072Z,68.96
2023-03-06T06:27:42.290Z,69.93
2023-03-06T06:30:55.400Z,69.51
2023-03-06T06:34:03.682Z,70.55
2023-03-06T06:37:17.140Z,70.49
2023-03-06T06:40:23.904Z,70.80
2023-03-06T06:43:31.287Z,70.93
2023-03-06T06:49:58.493Z,70.18
2023-03-06T06:53:21.777Z,70.16
2023-03-06T06:56:36.861Z,69.43
2023-03-06T06:59:48.212Z,69.28
2023-03-06T07:02:51.623Z,68.90
2023-03-06T07:05:58.205Z,69.90
2023-03-06T07:09:00.508Z,70.34
2023-03-06T07:12:10.449Z,68.92
2023-03-06T07:15:32.204Z,68.78
2023-03-06T07:18:37.969Z,70.45
2023-03-06T07:21:44.936Z,71.21
2023-03-06T07:24:47.521Z,71.01
2023-03-06T07:27:58.344Z,70.83
2023-03-06T07:31:43.389Z,69.83
2023-03-06T07:34:46.588Z,69.98
2023-03-06T07:37:51.931Z,69.75
2023-03-06T07:41:06.407Z,71.14
2023-03-06T07:44:20.639Z,72.06
2023-03-06T07:47:37.432Z,73.05
2023-03-06T07:50:59.665Z,73.32
2023-03-06T07:54:05.882Z,72.54
2023-03-06T07:57:11.127Z,73.09
2023-03-06T08:00:21.515Z,71.99
2023-03-06T08:03:23.748Z,72.23
2023-03-06T08:06:30.969Z,71.57
2023-03-06T08:09:43.651Z,71.63
2023-03-06T08:12:55.497Z,72.57
2023-03-06T08:16:02.696Z,70.63
2023-03-06T08:19:08.671Z,70.49
2023-03-06T08:22:26.540Z,71.16
2023-03-06T08:25:30.664Z,69.32
2023-03-06T08:28:38.304Z,69.88
2023-03-06T08:31:49.897Z,69.71
2023-03-06T08:34:52.697Z,68.76
2023-03-06T08:38:00.566Z,69.67
2023-03-06T08:41:20.445Z,68.83
2023-03-06T08:44:28.315Z,70.01
2023-03-06T08:47:30.734Z,67.55
2023-03-06T08:50:43.071Z,70.24
2023-03-06T08:53:56.066Z,68.50
2023-03-06T08:57:05.689Z,68.63
2023-03-06T09:00:10.332Z,68.10
2023-03-06T09:03:26.178Z,68.10
2023-03-06T09:06:38.172Z,67.82
2023-03-06T09:09:44.804Z,66.26
2023-03-06T09:12:56.609Z,67.32
2023-03-06T09:16:03.208Z,66.74
2023-03-06T09:19:17.436Z,64.45
2023-03-06T09:22:22.708Z,64.28
2023-03-06T09:25:34.465Z,63.36
2023-03-06T09:28:51.707Z,64.80
2023-03-06T09:31:56.465Z,62.87
2023-03-06T09:35:11.968Z,62.32
2023-03-06T09:38:28.293Z,59.84
2023-03-06T09:41:39.532Z,57.43
2023-03-06T09:45:03.295Z,56.11
2023-03-06T09:48:13.489Z,56.07
2023-03-06T09:51:37.055Z,55.72
2023-03-06T09:55:26.536Z,56.26
2023-03-06T09:59:01.621Z,55.49
2023-03-06T10:02:51.282Z,55.24
2023-03-06T10:06:33.032Z,54.77
2023-03-06T10:09:46.457Z,56.30
2023-03-06T10:13:06.682Z,56.19
2023-03-06T10:16:43.525Z,56.29
2023-03-06T10:19:48.597Z,57.62
2023-03-06T10:23:19.172Z,58.25
2023-03-06T10:26:34.907Z,56.90
2023-03-06T10:30:07.267Z,56.65
2023-03-06T10:33:36.451Z,58.65
2023-03-06T10:36:46.574Z,58.76
2023-03-06T10:40:17.205Z,59.42
2023-03-06T10:43:29.714Z,59.60
2023-03-06T10:46:49.653Z,58.95
2023-03-06T10:50:41.383Z,58.74
2023-03-06T10:53:53.463Z,60.82
2023-03-06T10:57:26.834Z,62.12
2023-03-06T11:00:43.483Z,61.89
2023-03-06T11:04:14.624Z,62.13
2023-03-06T11:07:28.606Z,63.08
2023-03-06T11:10:48.278Z,60.94
2023-03-06T11:13:58.822Z,61.23
2023-03-06T11:17:36.826Z,59.78
2023-03-06T11:20:53.035Z,59.93
2023-03-06T11:24:04.751Z,61.34
2023-03-06T11:27:35.956Z,60.88
2023-03-06T11:31:04.137Z,60.70
2023-03-06T11:34:55.274Z,59.81
2023-03-06T11:38:25.902Z,59.47
2023-03-06T11:42:10.960Z,59.05
2023-03-06T11:45:34.847Z,60.10
2023-03-06T11:48:48.241Z,59.78
2023-03-06T11:52:22.893Z,59.98
2023-03-06T11:55:32.083Z,59.81
2023-03-06T11:59:01.210Z,59.28
2023-03-06T12:02:25.027Z,59.50
2023-03-06T12:05:40.841Z,58.06
2023-03-06T12:09:16.859Z,59.33
2023-03-06T12:12:23.116Z,61.61
2023-03-06T12:16:20.684Z,62.04
2023-03-06T12:19:42.453Z,60.98
2023-03-06T12:23:18.087Z,61.81
2023-03-06T12:26:37.870Z,62.51
2023-03-06T12:29:52.258Z,61.71
2023-03-06T12:33:15.577Z,62.85
2023-03-06T12:36:34.272Z,61.75
2023-03-06T12:39:46.529Z,63.43
2023-03-06T12:43:09.159Z,63.75
2023-03-06T12:46:27.340Z,64.12
2023-03-06T12:49:40.035Z,64.04
2023-03-06T12:52:46.341Z,63.80
2023-03-06T12:55:58.691Z,63.67
2023-03-06T13:02:34.395Z,62.18
2023-03-06T13:06:02.092Z,61.87
2023-03-06T13:09:45.810Z,61.55
2023-03-06T13:13:48.139Z,63.21
2023-03-06T13:17:24.779Z,63.02
2023-03-06T13:20:35.031Z,63.63
2023-03-06T13:23:51.704Z,63.67
2023-03-06T13:27:03.097Z,63.17
2023-03-06T13:30:47.333Z,64.98
2023-03-06T13:33:58.563Z,65.55
2023-03-06T13:37:21.106Z,64.59
2023-03-06T13:40:31.891Z,64.65
2023-03-06T13:43:49.966Z,65.89
2023-03-06T13:47:14.201Z,65.78
2023-03-06T13:50:58.341Z,65.23
2023-03-06T13:54:16.213Z,64.32
2023-03-06T13:57:23.395Z,63.16
2023-03-06T14:01:06.549Z,63.54
2023-03-06T14:04:35.770Z,64.50
2023-03-06T14:07:46.320Z,64.57
2023-03-06T14:11:04.453Z,65.15
2023-03-06T14:14:11.579Z,64.84
2023-03-06T14:17:33.365Z,65.65
2023-03-06T14:20:43.963Z,64.66
2023-03-06T14:24:03.376Z,64.95
2023-03-06T14:27:21.543Z,64.89
2023-03-06T14:30:36.872Z,66.46
2023-03-06T14:33:51.765Z,65.67
2023-03-06T14:37:23.831Z,66.23
2023-03-06T14:40:35.686Z,65.77
2023-03-06T14:43:38.434Z,65.56
2023-03-06T14:47:14.914Z,65.39
2023-03-06T14:50:41.068Z,66.43
2023-03-06T14:53:45.982Z,66.70
2023-03-06T14:57:01.223Z,66.15
2023-03-06T15:00:12.364Z,66.23
2023-03-06T15:03:24.411Z,66.32
2023-03-06T15:06:54.024Z,65.65
2023-03-06T15:10:01.727Z,65.70
2023-03-06T15:13:23.047Z,66.38
2023-03-06T15:16:32.129Z,66.38
2023-03-06T15:19:39.406Z,66.25
2023-03-06T15:22:51.070Z,66.99
2023-03-06T15:26:04.250Z,66.81
2023-03-06T15:29:10.733Z,66.59
2023-03-06T15:32:35.508Z,66.88
2023-03-06T15:35:52.555Z,67.72
2023-03-06T15:39:02.620Z,67.78
2023-03-06T15:42:08.073Z,67.90
2023-03-06T15:45:19.502Z,67.80
2023-03-06T15:48:22.939Z,67.97
2023-03-06T15:51:35.199Z,68.01
2023-03-06T15:54:42.804Z,68.01
2023-03-06T15:58:00.127Z,68.34
2023-03-06T16:01:05.424Z,68.65
2023-03-06T16:04:13.712Z,68.80
2023-03-06T16:07:16.922Z,68.61
2023-03-06T16:10:34.140Z,69.27
2023-03-06T16:13:41.154Z,69.60
2023-03-06T16:16:44.714Z,69.53
2023-03-06T16:19:51.883Z,69.87
2023-03-06T16:23:00.019Z,69.40
2023-03-06T16:26:24.267Z,69.53
2023-03-06T16:29:33.756Z,69.29
2023-03-06T16:32:39.102Z,69.80
2023-03-06T16:35:48.855Z,70.04
2023-03-06T16:39:04.265Z,69.97
2023-03-06T16:42:18.358Z,69.48
2023-03-06T16:45:29.179Z,69.85
2023-03-06T16:48:34.575Z,69.57
2023-03-06T16:51:39.716Z,69.71
2023-03-06T16:54:45.803Z,69.90
2023-03-06T16:57:52.684Z,70.21
2023-03-06T17:01:01.757Z,70.45
2023-03-06T17:04:06.905Z,70.73
2023-03-06T17:07:16.245Z,70.71
2023-03-06T17:10:27.283Z,71.23
2023-03-06T17:13:30.695Z,71.26
2023-03-06T17:16:41.984Z,71.42
2023-03-06T17:19:56.592Z,71.02
2023-03-06T17:23:10.502Z,71.77
2023-03-06T17:26:19.686Z,72.02
2023-03-06T17:29:23.750Z,71.65
2023-03-06T17:32:26.757Z,71.92
2023-03-06T17:35:33.619Z,71.28
2023-03-06T17:38:41.605Z,71.49
2023-03-06T17:41:52.742Z,71.39
2023-03-06T17:44:58.814Z,71.75
2023-03-06T17:48:09.463Z,71.21
2023-03-06T17:51:28.589Z,71.06
2023-03-06T17:54:49.744Z,71.16
2023-03-06T17:57:57.911Z,71.19
2023-03-06T18:01:02.736Z,71.40
2023-03-06T18:04:05.164Z,71.40
2023-03-06T18:07:10.337Z,71.37
2023-03-06T18:13:40.066Z,71.84
2023-03-06T18:16:45.071Z,71.24
2023-03-06T18:19:55.707Z,71.22
2023-03-06T18:23:10.609Z,71.06
2023-03-06T18:26:38.759Z,71.55
2023-03-06T18:29:43.933Z,71.10
2023-03-06T18:32:54.984Z,71.57
2023-03-06T18:36:02.066Z,71.94
2023-03-06T18:39:23.580Z,72.10
2023-03-06T18:42:28.853Z,73.26
2023-03-06T18:45:37.649Z,72.89
2023-03-06T18:49:13.071Z,73.98
2023-03-06T18:52:26.216Z,75.51
2023-03-06T18:55:38.572Z,73.91
2023-03-06T18:58:56.240Z,75.71
2023-03-06T19:02:01.490Z,75.39
2023-03-06T19:05:10.249Z,75.15
2023-03-06T19:08:15.569Z,76.86
2023-03-06T19:11:32.217Z,76.08
2023-03-06T19:14:41.920Z,76.94
2023-03-06T19:17:50.360Z,76.92
2023-03-06T19:21:02.496Z,75.66
2023-03-06T19:24:14.471Z,75.75
2023-03-06T19:27:22.663Z,75.96
2023-03-06T19:30:28.157Z,75.99
2023-03-06T19:33:40.500Z,76.26
2023-03-06T19:36:45.381Z,77.74
2023-03-06T19:39:53.218Z,77.14
2023-03-06T19:43:05.760Z,78.43
2023-03-06T19:46:20.005Z,78.06
2023-03-06T19:49:33.389Z,78.22
2023-03-06T19:52:40.008Z,77.70
2023-03-06T19:55:49.191Z,77.70
2023-03-06T19:59:00.991Z,76.81
2023-03-06T20:02:15.929Z,77.46
2023-03-06T20:05:37.598Z,79.34
2023-03-06T20:08:53.250Z,78.46
2023-03-06T20:12:00.211Z,77.89
2023-03-06T20:15:02.694Z,78.09
2023-03-06T20:18:13.079Z,78.02
2023-03-06T20:21:23.368Z,77.75
2023-03-06T20:24:31.608Z,77.72
2023-03-06T20:27:42.726Z,77.77
2023-03-06T20:30:56.913Z,78.87
2023-03-06T20:34:23.150Z,78.96
2023-03-06T20:37:45.517Z,79.04
2023-03-06T20:40:50.251Z,78.16
2023-03-06T20:43:59.512Z,78.41
2023-03-06T20:47:04.697Z,77.94
2023-03-06T20:50:12.733Z,77.90
2023-03-06T20:53:22.071Z,77.84
2023-03-06T20:56:33.235Z,78.09
2023-03-06T20:59:48.093Z,78.63
2023-03-06T21:03:01.601Z,79.28
2023-03-06T21:06:06.220Z,78.38
2023-03-06T21:09:13.048Z,78.54
2023-03-06T21:12:29.679Z,79.16
2023-03-06T21:15:58.174Z,79.72
2023-03-06T21:19:13.989Z,81.18
2023-03-06T21:22:30.275Z,79.71
2023-03-06T21:25:41.234Z,82.18
2023-03-06T21:28:55.319Z,81.81
2023-03-06T21:32:06.454Z,81.43
2023-03-06T21:35:25.522Z,80.89
2023-03-06T21:38:34.680Z,80.59
2023-03-06T21:41:50.751Z,80.90
2023-03-06T21:44:56.941Z,80.42
2023-03-06T21:48:05.936Z,80.77
2023-03-06T21:51:16.959Z,80.28
2023-03-06T21:54:33.390Z,80.37
2023-03-06T21:57:38.757Z,80.79
2023-03-06T22:00:52.769Z,81.11
2023-03-06T22:04:00.197Z,81.90
2023-03-06T22:07:10.163Z,82.35
2023-03-06T22:10:14.298Z,81.75
2023-03-06T22:13:23.358Z,81.40
2023-03-06T22:16:25.717Z,81.05
2023-03-06T22:19:29.900Z,82.21
2023-03-06T22:22:36.824Z,81.89
2023-03-06T22:25:41.517Z,82.21
2023-03-06T22:28:43.828Z,81.56
2023-03-06T22:31:48.511Z,81.51
2023-03-06T22:35:01.017Z,81.80
2023-03-06T22:38:06.232Z,82.42
2023-03-06T22:41:23.012Z,81.99
2023-03-06T22:44:42.734Z,82.12
2023-03-06T22:47:55.199Z,81.82
2023-03-06T22:51:14.304Z,82.12
2023-03-06T22:54:26.320Z,81.51
2023-03-06T22:57:36.271Z,83.11
2023-03-06T23:00:46.859Z,81.83
2023-03-06T23:03:53.189Z,82.20
2023-03-06T23:07:11.359Z,82.29
2023-03-06T23:10:20.058Z,82.23
2023-03-06T23:13:52.554Z,82.61
2023-03-06T23:17:13.697Z,82.45
2023-03-06T23:20:41.302Z,82.64
2023-03-06T23:24:05.475Z,82.95
2023-03-06T23:27:10.448Z,83.76
2023-03-06T23:30:24.790Z,83.40
2023-03-06T23:33:40.190Z,83.96
2023-03-06T23:36:44.043Z,83.94
2023-03-06T23:39:52.718Z,84.00
2023-03-06T23:42:58.233Z,83.85
2023-03-06T23:46:06.261Z,84.92
2023-03-06T23:49:08.945Z,85.07
2023-03-06T23:52:13.813Z,85.89
2023-03-06T23:55:19.376Z,86.23
2023-03-06T23:58:35.662Z,86.27
